createdAt,value
2023-02-11T00:00:16.881Z,89948.00
2023-02-11T00:01:16.883Z,89950.00
2023-02-11T00:02:17.360Z,89948.00
2023-02-11T00:03:16.911Z,89950.00
2023-02-11T00:04:16.894Z,89944.00
2023-02-11T00:05:16.854Z,89946.00
2023-02-11T00:06:16.854Z,89944.00
2023-02-11T00:07:16.841Z,89944.00
2023-02-11T00:08:16.877Z,89944.00
2023-02-11T00:09:16.812Z,89942.00
2023-02-11T00:10:16.813Z,89942.00
2023-02-11T00:11:16.791Z,89940.00
2023-02-11T00:12:16.845Z,89940.00
2023-02-11T00:13:16.773Z,89940.00
2023-02-11T00:14:16.767Z,89940.00
2023-02-11T00:15:16.735Z,89940.00
2023-02-11T00:16:16.764Z,89942.00
2023-02-11T00:17:16.716Z,89944.00
2023-02-11T00:18:16.726Z,89946.00
2023-02-11T00:19:16.714Z,89946.00
2023-02-11T00:20:16.695Z,89942.00
2023-02-11T00:21:16.678Z,89944.00
2023-02-11T00:22:16.647Z,89942.00
2023-02-11T00:23:16.659Z,89946.00
2023-02-11T00:24:16.625Z,89946.00
2023-02-11T00:25:16.634Z,89946.00
2023-02-11T00:26:16.601Z,89944.00
2023-02-11T00:27:16.580Z,89948.00
2023-02-11T00:28:16.747Z,89944.00
2023-02-11T00:29:16.585Z,89944.00
2023-02-11T00:30:16.567Z,89944.00
2023-02-11T00:31:16.699Z,89946.00
2023-02-11T00:32:16.533Z,89946.00
2023-02-11T00:33:16.536Z,89944.00
2023-02-11T00:34:16.519Z,89940.00
2023-02-11T00:35:16.491Z,89942.00
2023-02-11T00:36:16.472Z,89940.00
2023-02-11T00:37:16.469Z,89942.00
2023-02-11T00:38:16.474Z,89938.00
2023-02-11T00:39:16.470Z,89940.00
2023-02-11T00:40:16.456Z,89940.00
2023-02-11T00:41:16.428Z,89940.00
2023-02-11T00:42:16.431Z,89938.00
2023-02-11T00:43:16.412Z,89938.00
2023-02-11T00:44:16.400Z,89938.00
2023-02-11T00:45:16.382Z,89940.00
2023-02-11T00:46:16.466Z,89940.00
2023-02-11T00:47:16.385Z,89942.00
2023-02-11T00:48:16.367Z,89940.00
2023-02-11T00:49:16.376Z,89938.00
2023-02-11T00:50:16.364Z,89942.00
2023-02-11T00:51:16.362Z,89944.00
2023-02-11T00:52:16.334Z,89942.00
2023-02-11T00:53:16.338Z,89942.00
2023-02-11T00:54:16.392Z,89938.00
2023-02-11T00:55:16.344Z,89940.00
2023-02-11T00:56:16.278Z,89940.00
2023-02-11T00:57:16.282Z,89938.00
2023-02-11T00:58:16.283Z,89936.00
2023-02-11T00:59:16.257Z,89938.00
2023-02-11T01:00:16.231Z,89940.00
2023-02-11T01:01:16.887Z,89940.00
2023-02-11T01:02:16.215Z,89938.00
2023-02-11T01:03:16.229Z,89940.00
2023-02-11T01:04:16.192Z,89940.00
2023-02-11T01:05:16.214Z,89940.00
2023-02-11T01:06:16.198Z,89944.00
2023-02-11T01:07:16.864Z,89942.00
2023-02-11T01:08:16.144Z,89940.00
2023-02-11T01:09:16.149Z,89938.00
2023-02-11T01:10:16.135Z,89938.00
2023-02-11T01:11:16.134Z,89936.00
2023-02-11T01:12:16.119Z,89936.00
2023-02-11T01:13:16.151Z,89936.00
2023-02-11T01:14:16.087Z,89932.00
2023-02-11T01:15:16.089Z,89932.00
2023-02-11T01:16:16.147Z,89930.00
2023-02-11T01:17:16.074Z,89928.00
2023-02-11T01:18:16.082Z,89926.00
2023-02-11T01:19:16.049Z,89924.00
2023-02-11T01:20:16.028Z,89924.00
2023-02-11T01:21:16.030Z,89924.00
2023-02-11T01:22:15.996Z,89926.00
2023-02-11T01:23:15.987Z,89924.00
2023-02-11T01:24:16.016Z,89922.00
2023-02-11T01:25:15.975Z,89920.00
2023-02-11T01:26:15.970Z,89916.00
2023-02-11T01:27:15.962Z,89918.00
2023-02-11T01:28:15.976Z,89918.00
2023-02-11T01:29:15.947Z,89914.00
2023-02-11T01:30:15.920Z,89916.00
2023-02-11T01:31:15.928Z,89916.00
2023-02-11T01:32:15.938Z,89914.00
2023-02-11T01:33:15.894Z,89918.00
2023-02-11T01:34:15.885Z,89918.00
2023-02-11T01:35:15.839Z,89918.00
2023-02-11T01:36:15.831Z,89914.00
2023-02-11T01:37:15.834Z,89911.00
2023-02-11T01:38:15.832Z,89913.00
2023-02-11T01:39:15.818Z,89913.00
2023-02-11T01:40:15.814Z,89913.00
2023-02-11T01:41:15.813Z,89913.00
2023-02-11T01:42:15.769Z,89909.00
2023-02-11T01:43:15.800Z,89911.00
2023-02-11T01:44:15.773Z,89909.00
2023-02-11T01:45:15.741Z,89909.00
2023-02-11T01:46:15.745Z,89905.00
2023-02-11T01:47:16.381Z,89903.00
2023-02-11T01:48:15.705Z,89901.00
2023-02-11T01:49:15.731Z,89899.00
2023-02-11T01:50:15.677Z,89897.00
2023-02-11T01:51:15.676Z,89899.00
2023-02-11T01:52:15.656Z,89899.00
2023-02-11T01:53:15.684Z,89901.00
2023-02-11T01:54:15.701Z,89901.00
2023-02-11T01:55:15.648Z,89901.00
2023-02-11T01:56:15.636Z,89899.00
2023-02-11T01:57:15.624Z,89901.00
2023-02-11T01:58:15.624Z,89901.00
2023-02-11T01:59:15.634Z,89897.00
2023-02-11T02:00:15.632Z,89897.00
2023-02-11T02:01:16.422Z,89899.00
2023-02-11T02:02:15.593Z,89895.00
2023-02-11T02:03:15.615Z,89889.00
2023-02-11T02:04:15.569Z,89891.00
2023-02-11T02:05:15.565Z,89891.00
2023-02-11T02:06:15.568Z,89891.00
2023-02-11T02:07:15.553Z,89893.00
2023-02-11T02:08:15.534Z,89891.00
2023-02-11T02:09:15.883Z,89891.00
2023-02-11T02:10:15.527Z,89887.00
2023-02-11T02:11:15.503Z,89885.00
2023-02-11T02:12:15.502Z,89885.00
2023-02-11T02:13:15.511Z,89885.00
2023-02-11T02:14:15.473Z,89879.00
2023-02-11T02:15:15.473Z,89879.00
2023-02-11T02:16:15.521Z,89875.00
2023-02-11T02:17:15.439Z,89871.00
2023-02-11T02:18:15.432Z,89875.00
2023-02-11T02:19:15.444Z,89871.00
2023-02-11T02:20:15.467Z,89873.00
2023-02-11T02:21:15.412Z,89867.00
2023-02-11T02:22:15.400Z,89867.00
2023-02-11T02:23:15.388Z,89865.00
2023-02-11T02:24:15.377Z,89863.00
2023-02-11T02:25:15.377Z,89865.00
2023-02-11T02:26:15.344Z,89865.00
2023-02-11T02:27:15.330Z,89863.00
2023-02-11T02:28:15.367Z,89863.00
2023-02-11T02:29:15.305Z,89863.00
2023-02-11T02:30:15.345Z,89865.00
2023-02-11T02:31:15.325Z,89863.00
2023-02-11T02:32:15.349Z,89863.00
2023-02-11T02:33:22.389Z,89863.00
2023-02-11T02:34:16.257Z,89861.00
2023-02-11T02:35:15.266Z,89858.00
2023-02-11T02:36:15.241Z,89856.00
2023-02-11T02:37:15.225Z,89858.00
2023-02-11T02:38:15.227Z,89861.00
2023-02-11T02:39:15.245Z,89861.00
2023-02-11T02:40:15.214Z,89861.00
2023-02-11T02:41:15.203Z,89858.00
2023-02-11T02:42:15.209Z,89856.00
2023-02-11T02:43:15.179Z,89858.00
2023-02-11T02:44:15.875Z,89856.00
2023-02-11T02:45:15.203Z,89856.00
2023-02-11T02:46:15.202Z,89856.00
2023-02-11T02:47:15.156Z,89852.00
2023-02-11T02:48:15.170Z,89852.00
2023-02-11T02:49:15.185Z,89852.00
2023-02-11T02:50:15.141Z,89852.00
2023-02-11T02:51:15.144Z,89854.00
2023-02-11T02:52:15.126Z,89856.00
2023-02-11T02:53:15.121Z,89856.00
2023-02-11T02:54:15.132Z,89856.00
2023-02-11T02:55:15.139Z,89856.00
2023-02-11T02:56:15.094Z,89854.00
2023-02-11T02:57:15.117Z,89854.00
2023-02-11T02:58:15.090Z,89852.00
2023-02-11T02:59:15.092Z,89854.00
2023-02-11T03:00:15.061Z,89852.00
2023-02-11T03:01:15.177Z,89854.00
2023-02-11T03:02:15.056Z,89852.00
2023-02-11T03:03:15.048Z,89854.00
2023-02-11T03:04:15.055Z,89856.00
2023-02-11T03:05:15.051Z,89854.00
2023-02-11T03:06:15.038Z,89856.00
2023-02-11T03:07:14.999Z,89852.00
2023-02-11T03:08:15.010Z,89852.00
2023-02-11T03:09:15.014Z,89854.00
2023-02-11T03:10:15.007Z,89854.00
2023-02-11T03:11:15.001Z,89852.00
2023-02-11T03:12:14.974Z,89852.00
2023-02-11T03:13:14.973Z,89850.00
2023-02-11T03:14:14.981Z,89852.00
2023-02-11T03:15:14.994Z,89852.00
2023-02-11T03:16:14.983Z,89850.00
2023-02-11T03:17:14.956Z,89848.00
2023-02-11T03:18:14.937Z,89846.00
2023-02-11T03:19:14.914Z,89846.00
2023-02-11T03:20:14.941Z,89850.00
2023-02-11T03:21:14.894Z,89842.00
2023-02-11T03:22:14.886Z,89842.00
2023-02-11T03:23:14.892Z,89842.00
2023-02-11T03:24:14.898Z,89842.00
2023-02-11T03:25:14.869Z,89842.00
2023-02-11T03:26:14.888Z,89844.00
2023-02-11T03:27:14.863Z,89846.00
2023-02-11T03:28:14.890Z,89844.00
2023-02-11T03:29:14.869Z,89842.00
2023-02-11T03:30:14.844Z,89844.00
2023-02-11T03:31:15.000Z,89844.00
2023-02-11T03:32:14.896Z,89846.00
2023-02-11T03:33:14.831Z,89840.00
2023-02-11T03:34:14.837Z,89842.00
2023-02-11T03:35:14.816Z,89840.00
2023-02-11T03:36:14.838Z,89840.00
2023-02-11T03:37:14.811Z,89842.00
2023-02-11T03:38:14.839Z,89842.00
2023-02-11T03:39:14.822Z,89842.00
2023-02-11T03:40:14.809Z,89838.00
2023-02-11T03:41:14.823Z,89840.00
2023-02-11T03:42:14.792Z,89836.00
2023-02-11T03:43:14.788Z,89838.00
2023-02-11T03:44:14.764Z,89836.00
2023-02-11T03:45:14.763Z,89838.00
2023-02-11T03:46:14.844Z,89836.00
2023-02-11T03:47:14.776Z,89836.00
2023-02-11T03:48:14.758Z,89838.00
2023-02-11T03:49:14.729Z,89836.00
2023-02-11T03:50:14.782Z,89836.00
2023-02-11T03:51:14.729Z,89838.00
2023-02-11T03:52:14.707Z,89834.00
2023-02-11T03:53:14.736Z,89832.00
2023-02-11T03:54:14.754Z,89834.00
2023-02-11T03:55:14.706Z,89834.00
2023-02-11T03:56:14.735Z,89832.00
2023-02-11T03:57:14.708Z,89832.00
2023-02-11T03:58:14.681Z,89832.00
2023-02-11T03:59:14.699Z,89832.00
2023-02-11T04:00:14.722Z,89830.00
2023-02-11T04:01:14.724Z,89832.00
2023-02-11T04:02:14.702Z,89830.00
2023-02-11T04:03:14.739Z,89830.00
2023-02-11T04:04:14.653Z,89826.00
2023-02-11T04:05:14.648Z,89828.00
2023-02-11T04:06:14.673Z,89830.00
2023-02-11T04:07:15.416Z,89828.00
2023-02-11T04:08:14.654Z,89830.00
2023-02-11T04:09:14.650Z,89828.00
2023-02-11T04:10:14.657Z,89832.00
2023-02-11T04:11:14.658Z,89830.00
2023-02-11T04:12:14.642Z,89832.00
2023-02-11T04:13:14.634Z,89832.00
2023-02-11T04:14:14.635Z,89830.00
2023-02-11T04:15:14.637Z,89828.00
2023-02-11T04:16:14.644Z,89828.00
2023-02-11T04:17:15.419Z,89828.00
2023-02-11T04:19:14.611Z,89826.00
2023-02-11T04:20:14.612Z,89822.00
2023-02-11T04:21:14.646Z,89822.00
2023-02-11T04:22:14.640Z,89822.00
2023-02-11T04:23:14.613Z,89822.00
2023-02-11T04:24:14.611Z,89822.00
2023-02-11T04:25:14.633Z,89822.00
2023-02-11T04:26:14.612Z,89824.00
2023-02-11T04:27:14.632Z,89826.00
2023-02-11T04:28:14.666Z,89826.00
2023-02-11T04:29:14.622Z,89826.00
2023-02-11T04:31:14.688Z,89826.00
2023-02-11T04:32:14.614Z,89822.00
2023-02-11T04:33:15.419Z,89828.00
2023-02-11T04:34:14.611Z,89826.00
2023-02-11T04:35:14.601Z,89828.00
2023-02-11T04:36:14.645Z,89824.00
2023-02-11T04:37:14.617Z,89824.00
2023-02-11T04:38:14.600Z,89828.00
2023-02-11T04:39:14.643Z,89826.00
2023-02-11T04:40:14.607Z,89824.00
2023-02-11T04:41:14.620Z,89826.00
2023-02-11T04:42:14.605Z,89828.00
2023-02-11T04:43:14.652Z,89830.00
2023-02-11T04:44:14.616Z,89832.00
2023-02-11T04:45:14.612Z,89828.00
2023-02-11T04:46:14.685Z,89828.00
2023-02-11T04:47:14.637Z,89828.00
2023-02-11T04:48:14.619Z,89828.00
2023-02-11T04:49:14.638Z,89826.00
2023-02-11T04:50:14.640Z,89824.00
2023-02-11T04:51:14.627Z,89822.00
2023-02-11T04:52:14.677Z,89824.00
2023-02-11T04:53:14.625Z,89826.00
2023-02-11T04:54:14.656Z,89826.00
2023-02-11T04:55:14.638Z,89826.00
2023-02-11T04:56:14.668Z,89828.00
2023-02-11T04:57:14.643Z,89826.00
2023-02-11T04:58:14.649Z,89828.00
2023-02-11T04:59:14.673Z,89826.00
2023-02-11T05:00:14.640Z,89824.00
2023-02-11T05:01:14.733Z,89822.00
2023-02-11T05:02:14.656Z,89824.00
2023-02-11T05:03:14.655Z,89818.00
2023-02-11T05:04:14.804Z,89816.00
2023-02-11T05:05:14.658Z,89812.00
2023-02-11T05:06:14.686Z,89816.00
2023-02-11T05:07:14.693Z,89814.00
2023-02-11T05:08:14.660Z,89814.00
2023-02-11T05:09:14.685Z,89814.00
2023-02-11T05:10:14.663Z,89814.00
2023-02-11T05:11:14.674Z,89814.00
2023-02-11T05:12:14.679Z,89816.00
2023-02-11T05:13:14.689Z,89816.00
2023-02-11T05:14:14.688Z,89818.00
2023-02-11T05:15:14.670Z,89820.00
2023-02-11T05:16:14.685Z,89820.00
2023-02-11T05:49:14.739Z,89828.00
2023-02-11T05:51:14.753Z,89830.00
2023-02-11T05:52:14.763Z,89830.00
2023-02-11T05:53:14.768Z,89826.00
2023-02-11T05:54:14.762Z,89826.00
2023-02-11T05:55:14.744Z,89830.00
2023-02-11T05:56:14.781Z,89830.00
2023-02-11T05:57:14.740Z,89828.00
2023-02-11T05:58:14.750Z,89830.00
2023-02-11T05:59:14.755Z,89832.00
2023-02-11T06:00:15.481Z,89832.00
2023-02-11T06:01:14.774Z,89832.00
2023-02-11T06:02:14.787Z,89836.00
2023-02-11T06:03:14.801Z,89836.00
2023-02-11T06:04:14.788Z,89838.00
2023-02-11T06:05:14.781Z,89836.00
2023-02-11T06:06:14.802Z,89840.00
2023-02-11T06:07:14.790Z,89840.00
2023-02-11T06:08:14.807Z,89840.00
2023-02-11T06:09:14.782Z,89840.00
2023-02-11T06:10:14.789Z,89842.00
2023-02-11T06:11:14.791Z,89842.00
2023-02-11T06:12:14.796Z,89838.00
2023-02-11T06:13:14.795Z,89836.00
2023-02-11T06:14:14.794Z,89836.00
2023-02-11T06:15:14.805Z,89832.00
2023-02-11T06:16:14.860Z,89834.00
2023-02-11T06:17:15.834Z,89834.00
2023-02-11T06:18:14.806Z,89830.00
2023-02-11T06:19:14.806Z,89828.00
2023-02-11T06:20:14.794Z,89828.00
2023-02-11T06:21:14.793Z,89828.00
2023-02-11T06:22:14.812Z,89830.00
2023-02-11T06:23:14.809Z,89828.00
2023-02-11T06:24:17.443Z,89830.00
2023-02-11T06:25:14.966Z,89828.00
2023-02-11T06:26:14.939Z,89830.00
2023-02-11T06:27:14.921Z,89834.00
2023-02-11T06:28:15.022Z,89834.00
2023-02-11T06:29:14.926Z,89838.00
2023-02-11T06:30:14.974Z,89838.00
2023-02-11T06:31:15.045Z,89840.00
2023-02-11T06:32:36.866Z,89842.00
2023-02-11T06:34:14.943Z,89846.00
2023-02-11T06:35:15.001Z,89848.00
2023-02-11T06:36:14.944Z,89848.00
2023-02-11T06:37:14.944Z,89850.00
2023-02-11T06:38:14.956Z,89850.00
2023-02-11T06:39:14.940Z,89844.00
2023-02-11T06:40:14.945Z,89844.00
2023-02-11T06:41:14.922Z,89848.00
2023-02-11T06:42:14.920Z,89846.00
2023-02-11T06:43:14.930Z,89846.00
2023-02-11T06:44:14.920Z,89844.00
2023-02-11T06:45:14.990Z,89846.00
2023-02-11T06:46:14.980Z,89848.00
2023-02-11T06:47:14.920Z,89846.00
2023-02-11T06:48:14.924Z,89852.00
2023-02-11T06:49:14.940Z,89852.00
2023-02-11T06:50:14.984Z,89852.00
2023-02-11T06:51:14.944Z,89852.00
2023-02-11T06:52:14.967Z,89854.00
2023-02-11T06:53:14.947Z,89856.00
2023-02-11T06:54:14.931Z,89856.00
2023-02-11T06:55:14.978Z,89856.00
2023-02-11T06:56:14.940Z,89858.00
2023-02-11T06:57:14.935Z,89856.00
2023-02-11T06:58:14.972Z,89856.00
2023-02-11T06:59:14.943Z,89859.00
2023-02-11T07:00:14.943Z,89859.00
2023-02-11T07:01:14.968Z,89859.00
2023-02-11T07:02:15.002Z,89856.00
2023-02-11T07:57:15.051Z,89861.00
2023-02-11T07:59:15.071Z,89863.00
2023-02-11T08:00:15.061Z,89863.00
2023-02-11T08:01:15.161Z,89867.00
2023-02-11T08:02:15.154Z,89863.00
2023-02-11T08:03:15.067Z,89859.00
2023-02-11T08:04:15.046Z,89859.00
2023-02-11T08:05:15.120Z,89861.00
2023-02-11T08:06:15.060Z,89859.00
2023-02-11T08:07:15.058Z,89865.00
2023-02-11T08:08:15.150Z,89859.00
2023-02-11T08:09:15.065Z,89859.00
2023-02-11T08:10:15.088Z,89865.00
2023-02-11T08:47:15.205Z,89830.00
2023-02-11T08:48:15.189Z,89830.00
2023-02-11T08:49:15.206Z,89834.00
2023-02-11T08:50:15.216Z,89832.00
2023-02-11T08:51:15.241Z,89834.00
2023-02-11T08:52:15.208Z,89834.00
2023-02-11T08:53:15.230Z,89834.00
2023-02-11T08:54:15.226Z,89832.00
2023-02-11T08:55:15.224Z,89834.00
2023-02-11T08:56:15.226Z,89830.00
2023-02-11T08:57:15.229Z,89830.00
2023-02-11T08:58:16.987Z,89830.00
2023-02-11T08:59:15.291Z,89832.00
2023-02-11T09:00:15.262Z,89832.00
2023-02-11T09:01:15.274Z,89834.00
2023-02-11T09:02:15.378Z,89834.00
2023-02-11T09:03:15.238Z,89834.00
2023-02-11T09:04:16.020Z,89830.00
2023-02-11T09:05:15.290Z,89830.00
2023-02-11T09:06:15.264Z,89828.00
2023-02-11T09:07:15.271Z,89828.00
2023-02-11T09:08:15.273Z,89830.00
2023-02-11T09:09:15.287Z,89832.00
2023-02-11T09:10:16.133Z,89828.00
2023-02-11T09:11:15.306Z,89828.00
2023-02-11T09:12:15.285Z,89828.00
2023-02-11T09:13:15.282Z,89830.00
2023-02-11T09:14:15.293Z,89834.00
2023-02-11T09:15:15.280Z,89832.00
2023-02-11T09:16:15.298Z,89830.00
2023-02-11T09:17:15.276Z,89830.00
2023-02-11T09:18:15.311Z,89834.00
2023-02-11T09:19:15.319Z,89836.00
2023-02-11T09:20:15.284Z,89834.00
2023-02-11T09:21:15.267Z,89832.00
2023-02-11T09:22:15.288Z,89836.00
2023-02-11T09:23:17.612Z,89834.00
2023-02-11T09:24:15.373Z,89834.00
2023-02-11T09:25:15.275Z,89832.00
2023-02-11T09:26:15.307Z,89836.00
2023-02-11T09:27:15.261Z,89832.00
2023-02-11T09:28:15.385Z,89828.00
2023-02-11T09:29:15.244Z,89828.00
2023-02-11T09:30:15.279Z,89828.00
2023-02-11T09:31:15.454Z,89828.00
2023-02-11T09:32:15.407Z,89830.00
2023-02-11T09:33:15.254Z,89832.00
2023-02-11T09:34:15.276Z,89832.00
2023-02-11T09:35:15.291Z,89830.00
2023-02-11T09:36:15.252Z,89830.00
2023-02-11T09:37:15.253Z,89830.00
2023-02-11T09:38:15.259Z,89832.00
2023-02-11T09:39:15.343Z,89834.00
2023-02-11T09:40:15.281Z,89832.00
2023-02-11T09:41:15.272Z,89832.00
2023-02-11T09:42:15.251Z,89832.00
2023-02-11T09:43:15.267Z,89830.00
2023-02-11T09:44:15.256Z,89830.00
2023-02-11T09:45:15.267Z,89834.00
2023-02-11T09:46:15.327Z,89836.00
2023-02-11T09:47:15.258Z,89836.00
2023-02-11T09:48:15.254Z,89834.00
2023-02-11T09:49:15.264Z,89834.00
2023-02-11T09:50:15.274Z,89838.00
2023-02-11T09:51:15.248Z,89836.00
2023-02-11T09:52:15.252Z,89838.00
2023-02-11T09:53:15.251Z,89836.00
2023-02-11T09:54:15.254Z,89834.00
2023-02-11T09:55:15.279Z,89838.00
2023-02-11T09:56:15.274Z,89836.00
2023-02-11T09:57:27.980Z,89834.00
2023-02-11T09:58:15.325Z,89832.00
2023-02-11T09:59:15.262Z,89834.00
2023-02-11T10:00:15.263Z,89830.00
2023-02-11T10:01:15.360Z,89830.00
2023-02-11T10:02:15.252Z,89830.00
2023-02-11T10:03:15.248Z,89828.00
2023-02-11T10:04:15.314Z,89826.00
2023-02-11T10:05:15.262Z,89828.00
2023-02-11T10:06:15.241Z,89828.00
2023-02-11T10:07:15.278Z,89826.00
2023-02-11T10:08:16.940Z,89824.00
2023-02-11T10:09:15.230Z,89820.00
2023-02-11T10:10:15.251Z,89818.00
2023-02-11T10:11:29.640Z,89816.00
2023-02-11T10:12:16.230Z,89818.00
2023-02-11T10:13:15.215Z,89816.00
2023-02-11T10:14:15.217Z,89818.00
2023-02-11T10:15:15.219Z,89814.00
2023-02-11T10:16:15.280Z,89818.00
2023-02-11T10:17:15.238Z,89816.00
2023-02-11T10:18:15.211Z,89816.00
2023-02-11T10:19:15.237Z,89816.00
2023-02-11T10:20:16.909Z,89816.00
2023-02-11T10:21:15.228Z,89818.00
2023-02-11T10:22:15.226Z,89818.00
2023-02-11T10:23:15.228Z,89816.00
2023-02-11T10:24:15.222Z,89816.00
2023-02-11T10:25:15.226Z,89816.00
2023-02-11T10:26:15.258Z,89816.00
2023-02-11T10:27:15.244Z,89812.00
2023-02-11T10:28:15.236Z,89811.00
2023-02-11T10:29:15.214Z,89809.00
2023-02-11T10:30:15.217Z,89812.00
2023-02-11T10:31:15.252Z,89812.00
2023-02-11T10:32:15.240Z,89814.00
2023-02-11T10:33:15.195Z,89811.00
2023-02-11T10:34:15.197Z,89807.00
2023-02-11T10:35:15.217Z,89805.00
2023-02-11T10:36:15.196Z,89803.00
2023-02-11T10:37:15.230Z,89799.00
2023-02-11T10:38:15.221Z,89797.00
2023-02-11T10:39:15.185Z,89793.00
2023-02-11T10:40:15.210Z,89789.00
2023-02-11T10:41:15.184Z,89791.00
2023-02-11T10:42:15.606Z,89789.00
2023-02-11T10:43:15.177Z,89791.00
2023-02-11T10:44:15.179Z,89791.00
2023-02-11T10:45:15.175Z,89789.00
2023-02-11T10:46:15.179Z,89785.00
2023-02-11T10:47:15.160Z,89785.00
2023-02-11T10:48:16.477Z,89781.00
2023-02-11T10:49:15.163Z,89783.00
2023-02-11T10:50:15.158Z,89772.00
2023-02-11T10:51:15.138Z,89774.00
2023-02-11T10:52:15.139Z,89774.00
2023-02-11T10:53:15.123Z,89772.00
2023-02-11T10:54:15.133Z,89781.00
2023-02-11T10:55:15.118Z,89770.00
2023-02-11T10:56:15.120Z,89770.00
2023-02-11T10:57:15.139Z,89766.00
2023-02-11T10:58:15.100Z,89764.00
2023-02-11T10:59:15.100Z,89762.00
2023-02-11T11:00:15.086Z,89762.00
2023-02-11T11:01:24.324Z,89762.00
2023-02-11T11:02:16.133Z,89764.00
2023-02-11T11:03:15.075Z,89762.00
2023-02-11T11:04:15.116Z,89760.00
2023-02-11T11:05:15.077Z,89762.00
2023-02-11T11:06:15.074Z,89764.00
2023-02-11T11:07:15.084Z,89764.00
2023-02-11T11:08:15.051Z,89764.00
2023-02-11T11:09:15.064Z,89764.00
2023-02-11T11:10:15.053Z,89768.00
2023-02-11T11:11:15.060Z,89764.00
2023-02-11T11:12:15.037Z,89762.00
2023-02-11T11:13:15.027Z,89760.00
2023-02-11T11:14:15.041Z,89754.00
2023-02-11T11:15:15.013Z,89754.00
2023-02-11T11:16:15.073Z,89752.00
2023-02-11T11:17:15.015Z,89748.00
2023-02-11T11:18:21.858Z,89746.00
2023-02-11T11:19:16.390Z,89743.00
2023-02-11T11:20:14.987Z,89741.00
2023-02-11T11:21:14.998Z,89739.00
2023-02-11T11:22:14.994Z,89739.00
2023-02-11T11:23:14.991Z,89744.00
2023-02-11T11:24:14.968Z,89743.00
2023-02-11T11:25:14.968Z,89741.00
2023-02-11T11:26:14.963Z,89741.00
2023-02-11T11:27:14.938Z,89737.00
2023-02-11T11:28:15.051Z,89735.00
2023-02-11T11:29:14.931Z,89735.00
2023-02-11T11:30:14.950Z,89729.00
2023-02-11T11:31:15.034Z,89733.00
2023-02-11T11:32:14.917Z,89735.00
2023-02-11T11:33:14.921Z,89737.00
2023-02-11T11:34:14.918Z,89735.00
2023-02-11T11:35:14.920Z,89733.00
2023-02-11T11:36:14.884Z,89731.00
2023-02-11T11:37:14.879Z,89729.00
2023-02-11T11:38:14.883Z,89725.00
2023-02-11T11:39:14.860Z,89723.00
2023-02-11T11:40:14.868Z,89723.00
2023-02-11T11:41:14.853Z,89721.00
2023-02-11T11:42:14.826Z,89721.00
2023-02-11T11:43:14.827Z,89719.00
2023-02-11T11:44:14.822Z,89719.00
2023-02-11T11:45:14.812Z,89717.00
2023-02-11T11:46:14.844Z,89717.00
2023-02-11T11:47:14.793Z,89717.00
2023-02-11T11:48:14.794Z,89717.00
2023-02-11T11:49:14.773Z,89715.00
2023-02-11T11:50:14.769Z,89717.00
2023-02-11T11:51:14.777Z,89715.00
2023-02-11T11:52:14.773Z,89717.00
2023-02-11T11:53:14.762Z,89715.00
2023-02-11T11:54:14.748Z,89719.00
2023-02-11T11:55:14.753Z,89717.00
2023-02-11T11:56:14.740Z,89719.00
2023-02-11T11:57:14.709Z,89717.00
2023-02-11T11:58:14.701Z,89719.00
2023-02-11T11:59:14.698Z,89715.00
2023-02-11T12:00:14.802Z,89719.00
2023-02-11T12:01:14.682Z,89713.00
2023-02-11T12:02:14.717Z,89713.00
2023-02-11T12:03:14.699Z,89715.00
2023-02-11T12:04:14.684Z,89715.00
2023-02-11T12:05:14.677Z,89715.00
2023-02-11T12:06:14.648Z,89713.00
2023-02-11T12:07:14.641Z,89711.00
2023-02-11T12:08:14.652Z,89709.00
2023-02-11T12:09:14.689Z,89707.00
2023-02-11T12:10:14.644Z,89707.00
2023-02-11T12:11:14.614Z,89705.00
2023-02-11T12:12:14.593Z,89705.00
2023-02-11T12:13:14.596Z,89703.00
2023-02-11T12:14:14.603Z,89703.00
2023-02-11T12:15:14.565Z,89703.00
2023-02-11T12:16:14.679Z,89701.00
2023-02-11T12:17:14.575Z,89699.00
2023-02-11T12:18:14.560Z,89699.00
2023-02-11T12:19:14.549Z,89699.00
2023-02-11T12:20:14.620Z,89697.00
2023-02-11T12:21:14.551Z,89699.00
2023-02-11T12:22:14.518Z,89701.00
2023-02-11T12:23:14.518Z,89703.00
2023-02-11T12:24:17.217Z,89699.00
2023-02-11T12:25:14.510Z,89699.00
2023-02-11T12:26:14.473Z,89699.00
2023-02-11T12:27:14.477Z,89697.00
2023-02-11T12:28:14.539Z,89697.00
2023-02-11T12:29:14.475Z,89694.00
2023-02-11T12:30:14.498Z,89694.00
2023-02-11T12:31:14.594Z,89694.00
2023-02-11T12:32:14.556Z,89694.00
2023-02-11T12:33:14.425Z,89696.00
2023-02-11T12:34:14.417Z,89696.00
2023-02-11T12:35:14.425Z,89692.00
2023-02-11T12:36:14.401Z,89692.00
2023-02-11T12:37:14.392Z,89692.00
2023-02-11T12:38:14.400Z,89692.00
2023-02-11T12:39:14.388Z,89690.00
2023-02-11T12:40:14.374Z,89694.00
2023-02-11T12:41:14.374Z,89690.00
2023-02-11T12:42:14.348Z,89690.00
2023-02-11T12:43:14.343Z,89692.00
2023-02-11T12:44:14.354Z,89694.00
2023-02-11T12:45:14.336Z,89694.00
2023-02-11T12:46:14.380Z,89692.00
2023-02-11T12:47:14.303Z,89690.00
2023-02-11T12:48:14.286Z,89690.00
2023-02-11T12:49:14.287Z,89688.00
2023-02-11T12:50:14.283Z,89690.00
2023-02-11T12:51:14.282Z,89690.00
2023-02-11T12:52:14.276Z,89686.00
2023-02-11T12:53:14.289Z,89688.00
2023-02-11T12:54:14.257Z,89690.00
2023-02-11T12:55:14.228Z,89688.00
2023-02-11T12:56:14.227Z,89692.00
2023-02-11T12:57:14.227Z,89688.00
2023-02-11T12:58:14.221Z,89688.00
2023-02-11T12:59:14.496Z,89688.00
2023-02-11T13:00:14.204Z,89686.00
2023-02-11T13:01:14.193Z,89686.00
2023-02-11T13:02:14.234Z,89688.00
2023-02-11T13:03:14.209Z,89684.00
2023-02-11T13:04:14.140Z,89684.00
2023-02-11T13:05:14.531Z,89686.00
2023-02-11T13:06:14.144Z,89684.00
2023-02-11T13:07:14.126Z,89684.00
2023-02-11T13:08:14.125Z,89682.00
2023-02-11T13:09:14.132Z,89680.00
2023-02-11T13:10:14.094Z,89680.00
2023-02-11T13:11:14.605Z,89682.00
2023-02-11T13:12:14.081Z,89680.00
2023-02-11T13:13:14.074Z,89682.00
2023-02-11T13:14:14.062Z,89680.00
2023-02-11T13:15:14.038Z,89680.00
2023-02-11T13:16:14.076Z,89680.00
2023-02-11T13:17:14.040Z,89682.00
2023-02-11T13:18:14.046Z,89684.00
2023-02-11T13:19:14.104Z,89684.00
2023-02-11T13:20:14.014Z,89680.00
2023-02-11T13:21:14.004Z,89680.00
2023-02-11T13:22:14.001Z,89678.00
2023-02-11T13:23:14.011Z,89682.00
2023-02-11T13:24:14.032Z,89682.00
2023-02-11T13:25:14.016Z,89684.00
2023-02-11T13:26:13.977Z,89684.00
2023-02-11T13:27:13.983Z,89686.00
2023-02-11T13:28:14.019Z,89684.00
2023-02-11T13:29:13.993Z,89686.00
2023-02-11T13:30:13.953Z,89686.00
2023-02-11T13:31:14.039Z,89686.00
2023-02-11T13:32:14.023Z,89684.00
2023-02-11T13:34:13.919Z,89688.00
2023-02-11T13:35:13.945Z,89688.00
2023-02-11T13:50:13.959Z,89676.00
2023-02-11T14:21:14.131Z,89652.00
2023-02-11T14:36:16.153Z,89644.00
2023-02-11T15:04:14.149Z,89648.00
2023-02-11T19:45:12.157Z,89789.00
2023-02-11T19:46:12.156Z,89785.00
2023-02-11T19:47:12.167Z,89785.00
2023-02-11T19:48:12.124Z,89789.00
2023-02-11T19:49:12.141Z,89791.00
2023-02-11T19:50:12.113Z,89791.00
2023-02-11T19:52:12.125Z,89793.00
2023-02-11T19:53:12.131Z,89793.00
2023-02-11T19:54:12.103Z,89797.00
2023-02-11T19:55:12.106Z,89797.00
2023-02-11T19:56:12.114Z,89799.00
2023-02-11T19:57:12.131Z,89797.00
2023-02-11T19:58:12.126Z,89797.00